Time;durP1;ratioP1;P1;durP2;ratioP2;P2;SDS_P1;SDS_P2;PMS_P1;PMS_P2;Temp;Humidity;BMP_temperature;BMP_pressure;BME280_temperature;BME280_humidity;BME280_pressure;Samples;Min_cycle;Max_cycle;Signal;HPM_P1;HPM_P2
2022/05/11 00:00:20;;;;;;;8.33;3.97;;;16.40;53.40;;;;;;4987131;28;21057;-82
2022/05/11 00:02:47;;;;;;;7.73;4.70;;;16.40;53.00;;;;;;5005849;28;20487;-82
2022/05/11 00:05:20;;;;;;;8.80;4.60;;;16.40;51.50;;;;;;5005868;28;20879;-86
2022/05/11 00:07:55;;;;;;;6.63;4.27;;;16.30;52.40;;;;;;4986569;28;20453;-84
2022/05/11 00:10:25;;;;;;;7.87;4.53;;;16.40;51.90;;;;;;4988197;28;20457;-85
2022/05/11 00:12:52;;;;;;;9.90;3.73;;;16.40;49.80;;;;;;4993619;28;20500;-86
2022/05/11 00:15:22;;;;;;;9.00;4.50;;;16.50;50.00;;;;;;5001546;28;20462;-81
2022/05/11 00:17:55;;;;;;;12.10;5.23;;;16.40;48.60;;;;;;4987069;28;20502;-82
2022/05/11 00:20:26;;;;;;;9.23;3.93;;;16.50;45.60;;;;;;4988481;28;20457;-81
2022/05/11 00:23:04;;;;;;;10.77;4.20;;;16.40;47.20;;;;;;5005324;28;20489;-81
2022/05/11 00:25:34;;;;;;;8.90;3.97;;;16.50;50.00;;;;;;5002145;28;20468;-81
2022/05/11 00:28:06;;;;;;;7.90;4.17;;;16.40;49.90;;;;;;5004427;28;20456;-82
2022/05/11 00:30:36;;;;;;;8.07;4.40;;;16.40;47.60;;;;;;5004440;28;20975;-82
2022/05/11 00:33:04;;;;;;;7.13;3.80;;;16.40;47.30;;;;;;5001681;28;20482;-82
2022/05/11 00:35:34;;;;;;;7.30;3.47;;;16.40;46.30;;;;;;4992830;28;20459;-81
2022/05/11 00:38:08;;;;;;;9.40;3.93;;;16.40;46.00;;;;;;5003006;28;20545;-81
2022/05/11 00:40:41;;;;;;;7.90;3.83;;;16.40;47.50;;;;;;4995540;28;20455;-81
2022/05/11 00:43:09;;;;;;;10.87;4.50;;;16.40;48.40;;;;;;5004161;28;20488;-81
2022/05/11 00:45:37;;;;;;;8.30;4.53;;;16.30;49.50;;;;;;5005312;28;20471;-82
2022/05/11 00:50:52;;;;;;;9.13;4.37;;;16.30;50.70;;;;;;4985224;28;20452;-81
2022/05/11 00:53:24;;;;;;;8.07;4.07;;;16.30;53.30;;;;;;4987701;28;20477;-81
2022/05/11 00:55:57;;;;;;;8.37;4.77;;;16.30;53.70;;;;;;5005170;28;20464;-81
2022/05/11 00:58:28;;;;;;;7.67;4.00;;;16.30;49.80;;;;;;5001529;28;20494;-81
2022/05/11 01:00:55;;;;;;;10.53;4.30;;;16.30;49.80;;;;;;4997609;28;20451;-81
2022/05/11 01:03:29;;;;;;;12.90;4.37;;;16.40;47.70;;;;;;4986616;28;20476;-81
2022/05/11 01:05:59;;;;;;;8.73;4.30;;;16.40;48.50;;;;;;4984039;28;20457;-82
2022/05/11 01:08:35;;;;;;;10.50;5.03;;;16.40;48.00;;;;;;5001234;28;20452;-81
2022/05/11 01:11:04;;;;;;;13.43;4.03;;;16.40;47.80;;;;;;4989757;28;21019;-82
2022/05/11 01:13:32;;;;;;;9.47;4.43;;;16.40;48.00;;;;;;4985107;28;20485;-81
2022/05/11 01:16:01;;;;;;;10.30;4.40;;;16.30;48.50;;;;;;4998284;28;20543;-81
2022/05/11 01:18:30;;;;;;;9.30;3.87;;;16.20;49.70;;;;;;5003977;28;20499;-81
2022/05/11 01:21:07;;;;;;;8.83;4.97;;;16.20;51.80;;;;;;5002500;28;20889;-81
2022/05/11 01:23:44;;;;;;;10.40;4.63;;;16.10;52.80;;;;;;5003315;28;20476;-81
2022/05/11 01:26:18;;;;;;;8.60;5.13;;;16.00;53.70;;;;;;4989640;28;20464;-81
2022/05/11 01:28:54;;;;;;;9.07;5.17;;;15.90;53.60;;;;;;4984187;28;20456;-81
2022/05/11 01:31:21;;;;;;;9.30;4.50;;;15.80;52.90;;;;;;4984801;28;20452;-81
2022/05/11 01:33:51;;;;;;;10.93;5.77;;;15.70;55.80;;;;;;4984298;28;20483;-81
2022/05/11 01:36:25;;;;;;;9.37;5.10;;;15.50;57.70;;;;;;5004224;28;20551;-82
2022/05/11 01:38:55;;;;;;;8.83;5.50;;;15.40;59.40;;;;;;5003081;28;20479;-81
2022/05/11 01:41:28;;;;;;;8.23;5.70;;;15.30;61.40;;;;;;4964363;28;20458;-81
2022/05/11 01:43:55;;;;;;;8.40;5.73;;;15.10;63.30;;;;;;4964749;29;20488;-81
2022/05/11 01:46:22;;;;;;;10.87;5.60;;;14.90;65.40;;;;;;4983915;28;20482;-81
2022/05/11 01:48:50;;;;;;;9.23;5.17;;;14.70;66.20;;;;;;4989207;28;20447;-81
2022/05/11 01:51:19;;;;;;;9.97;6.10;;;14.70;68.00;;;;;;5003316;28;20797;-81
2022/05/11 01:53:48;;;;;;;12.73;6.67;;;14.60;70.00;;;;;;4997336;28;20475;-81
2022/05/11 01:56:16;;;;;;;11.63;7.60;;;14.50;71.20;;;;;;4983761;28;20459;-82
2022/05/11 01:58:45;;;;;;;9.20;6.60;;;14.30;72.30;;;;;;4987117;28;20493;-83
2022/05/11 02:01:11;;;;;;;12.27;6.53;;;14.30;73.00;;;;;;5003585;28;20521;-82
2022/05/11 02:03:38;;;;;;;10.60;6.87;;;14.10;74.40;;;;;;4991585;28;20483;-83
2022/05/11 02:09:02;;;;;;;9.37;6.03;;;14.00;75.70;;;;;;4982645;28;20450;-83
2022/05/11 02:11:29;;;;;;;11.00;6.80;;;13.90;76.90;;;;;;4983974;28;20465;-83
2022/05/11 02:13:58;;;;;;;9.13;6.90;;;13.90;77.40;;;;;;4994722;28;20542;-83
2022/05/11 02:16:27;;;;;;;10.70;7.00;;;13.90;77.10;;;;;;5002939;28;20971;-83
2022/05/11 02:18:55;;;;;;;9.90;6.73;;;13.90;78.50;;;;;;5001488;28;20484;-83
2022/05/11 02:21:22;;;;;;;8.17;6.83;;;13.80;77.60;;;;;;5002162;28;20458;-83
2022/05/11 02:23:50;;;;;;;14.07;6.93;;;13.80;77.60;;;;;;4984131;28;20477;-83
2022/05/11 02:26:19;;;;;;;13.90;7.10;;;13.70;77.90;;;;;;4984216;28;20992;-83
2022/05/11 02:28:50;;;;;;;10.07;6.73;;;13.70;78.90;;;;;;4998430;28;20450;-83
2022/05/11 02:31:19;;;;;;;9.87;7.63;;;13.70;79.20;;;;;;4997668;28;20455;-83
2022/05/11 02:33:45;;;;;;;10.67;7.60;;;13.70;80.30;;;;;;4982707;28;21146;-83
2022/05/11 02:36:17;;;;;;;9.47;7.33;;;13.60;80.20;;;;;;4985452;28;20959;-82
2022/05/11 02:38:44;;;;;;;10.40;7.67;;;13.60;80.30;;;;;;5001164;28;20513;-83
2022/05/11 02:41:14;;;;;;;11.33;7.43;;;13.60;80.20;;;;;;4999633;28;20483;-83
2022/05/11 02:43:43;;;;;;;10.10;6.80;;;13.60;80.20;;;;;;4982508;28;20505;-83
2022/05/11 02:46:11;;;;;;;10.70;6.50;;;13.60;80.20;;;;;;4982239;28;20490;-82
2022/05/11 02:48:46;;;;;;;8.97;6.07;;;13.60;80.20;;;;;;4983318;28;20497;-83
2022/05/11 02:51:13;;;;;;;9.10;6.60;;;13.60;80.20;;;;;;4990723;28;20450;-83
2022/05/11 02:53:43;;;;;;;9.97;7.40;;;13.70;80.20;;;;;;4981875;28;20482;-83
2022/05/11 02:56:13;;;;;;;11.03;6.37;;;13.70;80.30;;;;;;4982225;28;20542;-82
2022/05/11 02:58:40;;;;;;;8.10;6.50;;;13.80;80.40;;;;;;4992203;28;20472;-83
2022/05/11 03:01:10;;;;;;;12.00;6.40;;;13.80;77.80;;;;;;4984911;28;20550;-83
2022/05/11 03:03:38;;;;;;;9.10;5.70;;;13.90;76.40;;;;;;4991689;28;20470;-82
2022/05/11 03:06:08;;;;;;;8.57;6.17;;;14.00;75.00;;;;;;5001588;28;20454;-83
2022/05/11 03:08:38;;;;;;;8.47;7.40;;;13.90;78.20;;;;;;4991950;28;20571;-83
2022/05/11 03:11:12;;;;;;;9.80;8.50;;;13.90;80.50;;;;;;4982974;28;20450;-83
2022/05/11 03:13:40;;;;;;;10.30;6.97;;;13.80;80.40;;;;;;4990860;28;20966;-83
2022/05/11 03:16:12;;;;;;;10.37;8.50;;;13.70;81.30;;;;;;5001092;28;20454;-83
2022/05/11 03:18:43;;;;;;;11.93;10.73;;;13.50;83.90;;;;;;4992907;28;20470;-83
2022/05/11 03:21:11;;;;;;;19.80;15.90;;;13.40;86.40;;;;;;5001390;28;20457;-83
2022/05/11 03:23:43;;;;;;;18.33;17.00;;;13.40;87.80;;;;;;4985297;28;20502;-84
2022/05/11 03:26:11;;;;;;;24.33;22.80;;;13.40;87.80;;;;;;4991514;28;20454;-80
2022/05/11 03:28:38;;;;;;;28.20;26.50;;;13.30;89.40;;;;;;4980068;28;20451;-79
2022/05/11 03:31:04;;;;;;;28.33;26.63;;;13.40;90.20;;;;;;4999451;28;20458;-79
2022/05/11 03:36:17;;;;;;;26.20;24.60;;;13.30;90.10;;;;;;4993553;28;20445;-81
2022/05/11 03:38:43;;;;;;;36.30;34.50;;;13.30;90.50;;;;;;4998403;28;20475;-81
2022/05/11 03:41:10;;;;;;;40.00;38.07;;;13.30;91.10;;;;;;4999754;28;20450;-82
2022/05/11 03:43:37;;;;;;;30.50;28.60;;;13.40;91.60;;;;;;4990232;28;20865;-80
2022/05/11 03:46:03;;;;;;;21.57;19.90;;;13.40;91.40;;;;;;4981196;28;20463;-81
2022/05/11 03:48:31;;;;;;;18.00;16.30;;;13.30;91.00;;;;;;4988841;28;20446;-82
2022/05/11 03:50:58;;;;;;;16.90;15.40;;;13.40;90.40;;;;;;4995948;28;20447;-82
2022/05/11 03:53:26;;;;;;;19.73;17.93;;;13.40;90.00;;;;;;4990206;28;20467;-83
2022/05/11 03:55:54;;;;;;;13.47;12.17;;;13.50;90.00;;;;;;4987803;28;20459;-83
2022/05/11 03:59:11;;;;;;;13.23;12.03;;;13.50;89.50;;;;;;4987259;28;20459;-81
2022/05/11 04:02:37;;;;;;;20.10;18.50;;;13.50;89.90;;;;;;4996126;28;20493;-81
2022/05/11 04:15:19;;;;;;;20.67;19.03;;;13.20;91.70;;;;;;4863678;29;20949;-82
2022/05/11 04:17:46;;;;;;;22.13;20.30;;;13.20;92.20;;;;;;4949895;28;20462;-82
2022/05/11 04:20:23;;;;;;;25.67;23.30;;;13.20;92.40;;;;;;4987864;28;20478;-83
2022/05/11 04:22:50;;;;;;;42.17;30.30;;;13.30;92.30;;;;;;4981760;28;20470;-82
2022/05/11 04:25:18;;;;;;;18.93;14.40;;;13.50;91.50;;;;;;4972081;28;20451;-81
2022/05/11 04:27:45;;;;;;;14.43;12.10;;;13.70;90.10;;;;;;4978246;28;20806;-82
2022/05/11 04:30:14;;;;;;;14.10;9.83;;;14.00;87.70;;;;;;4994826;28;20485;-82
2022/05/11 04:32:42;;;;;;;15.00;10.47;;;14.20;85.30;;;;;;4992029;28;20486;-82
2022/05/11 04:35:10;;;;;;;13.00;8.40;;;14.30;83.70;;;;;;4987351;28;20481;-82
2022/05/11 04:37:37;;;;;;;18.43;8.53;;;14.40;83.50;;;;;;4990700;28;20461;-82
2022/05/11 04:40:05;;;;;;;11.70;8.07;;;14.60;82.10;;;;;;4980108;28;20867;-82
2022/05/11 04:42:32;;;;;;;10.47;7.60;;;14.50;81.80;;;;;;4979195;28;20486;-82
2022/05/11 04:44:59;;;;;;;18.30;9.53;;;14.50;81.10;;;;;;4993147;28;20514;-82
2022/05/11 04:47:26;;;;;;;12.30;6.80;;;14.60;81.10;;;;;;4976579;28;20462;-82
2022/05/11 04:49:54;;;;;;;11.63;7.00;;;14.70;79.30;;;;;;4995120;28;20454;-82
2022/05/11 04:52:21;;;;;;;16.50;7.93;;;14.80;78.70;;;;;;4995768;28;20857;-82
2022/05/11 04:54:52;;;;;;;16.43;8.20;;;14.80;78.50;;;;;;4991539;28;20958;-82
2022/05/11 04:57:20;;;;;;;16.53;7.77;;;14.80;78.00;;;;;;4996034;28;20458;-83
2022/05/11 04:59:49;;;;;;;20.47;7.13;;;14.90;76.70;;;;;;4976557;28;20483;-83
2022/05/11 05:02:18;;;;;;;13.77;7.77;;;14.80;78.20;;;;;;4976563;28;20570;-82
2022/05/11 05:04:45;;;;;;;15.47;8.20;;;14.80;77.30;;;;;;4993844;28;20456;-82
2022/05/11 05:07:13;;;;;;;22.50;8.70;;;14.80;75.50;;;;;;4979932;28;20455;-82
2022/05/11 05:09:41;;;;;;;15.40;7.57;;;14.80;75.80;;;;;;4995981;28;20458;-84
2022/05/11 05:12:09;;;;;;;13.30;8.03;;;14.70;76.30;;;;;;4980984;28;20503;-83
2022/05/11 05:14:36;;;;;;;14.13;8.20;;;14.80;76.30;;;;;;4973126;28;20459;-83
2022/05/11 05:17:04;;;;;;;13.27;8.37;;;14.90;76.90;;;;;;4988771;28;20454;-83
2022/05/11 05:19:31;;;;;;;12.70;8.27;;;14.90;76.60;;;;;;4980967;28;20897;-83
2022/05/11 05:21:59;;;;;;;18.03;8.23;;;15.00;78.50;;;;;;4987937;28;20573;-84
2022/05/11 05:24:27;;;;;;;12.30;7.77;;;15.10;78.30;;;;;;4989660;28;20466;-82
2022/05/11 05:26:53;;;;;;;14.00;8.67;;;15.40;76.70;;;;;;4985450;28;20455;-82
2022/05/11 05:32:06;;;;;;;14.13;7.87;;;16.30;69.20;;;;;;4983332;28;20474;-83
2022/05/11 05:34:33;;;;;;;19.77;7.77;;;16.70;66.10;;;;;;4990054;28;21015;-83
2022/05/11 05:36:59;;;;;;;10.67;7.27;;;17.00;62.40;;;;;;4985752;28;20484;-82
2022/05/11 05:39:27;;;;;;;14.57;9.00;;;17.30;59.60;;;;;;4984150;28;20475;-82
2022/05/11 05:44:31;;;;;;;11.90;7.70;;;18.00;55.60;;;;;;5028408;23;20918;-82
2022/05/11 05:47:02;;;;;;;23.83;7.80;;;18.40;51.80;;;;;;5009535;28;20835;-82
2022/05/11 05:49:30;;;;;;;10.67;6.27;;;18.50;50.60;;;;;;5014785;28;20459;-81
2022/05/11 05:51:58;;;;;;;14.13;7.40;;;18.70;48.50;;;;;;5008378;28;20477;-81
2022/05/11 05:54:25;;;;;;;18.70;8.13;;;18.90;45.70;;;;;;5005725;28;20467;-83
2022/05/11 05:56:54;;;;;;;12.60;7.07;;;18.90;47.10;;;;;;5001447;28;20448;-80
2022/05/11 05:59:21;;;;;;;16.70;6.80;;;19.20;47.10;;;;;;4995147;28;20477;-79
2022/05/11 06:01:47;;;;;;;19.70;8.87;;;19.20;46.20;;;;;;5000872;28;20462;-82
2022/05/11 06:04:14;;;;;;;16.50;7.17;;;19.30;46.10;;;;;;5001112;28;20899;-83
2022/05/11 06:06:41;;;;;;;22.90;7.00;;;19.40;44.70;;;;;;4978535;28;20462;-84
2022/05/11 06:09:09;;;;;;;9.93;6.90;;;19.60;45.00;;;;;;4988379;28;20453;-83
2022/05/11 06:11:36;;;;;;;12.23;7.27;;;19.50;43.90;;;;;;5010054;28;20472;-82
2022/05/11 06:14:04;;;;;;;11.60;7.40;;;19.40;39.50;;;;;;5016659;28;20479;-79
2022/05/11 06:16:32;;;;;;;15.77;6.90;;;19.60;40.60;;;;;;5011081;28;20977;-80
2022/05/11 06:18:59;;;;;;;10.07;6.63;;;19.60;39.80;;;;;;5010466;28;20485;-80
2022/05/11 06:21:26;;;;;;;10.47;6.87;;;19.60;37.50;;;;;;5016029;28;20460;-81
2022/05/11 06:23:53;;;;;;;12.23;7.83;;;19.70;38.50;;;;;;5014674;28;20476;-81
2022/05/11 06:26:20;;;;;;;15.30;6.67;;;19.80;36.10;;;;;;5010263;28;20463;-82
2022/05/11 06:28:47;;;;;;;13.00;7.27;;;19.90;35.20;;;;;;5006248;28;20467;-82
2022/05/11 06:31:15;;;;;;;12.93;6.67;;;19.80;35.10;;;;;;5018761;28;20455;-83
2022/05/11 06:33:46;;;;;;;22.17;7.47;;;20.00;35.10;;;;;;5007124;28;20492;-81
2022/05/11 06:36:13;;;;;;;12.57;6.40;;;20.20;34.60;;;;;;5008365;28;20462;-82
2022/05/11 06:38:39;;;;;;;14.13;7.00;;;20.50;34.20;;;;;;5004398;28;20453;-81
2022/05/11 06:41:10;;;;;;;11.67;6.10;;;20.50;33.20;;;;;;5012727;28;20478;-88
2022/05/11 06:43:37;;;;;;;11.83;5.23;;;20.70;31.30;;;;;;5002013;28;20479;-87
2022/05/11 06:46:04;;;;;;;12.80;5.47;;;21.00;30.40;;;;;;4999340;28;20458;-86
2022/05/11 06:48:32;;;;;;;10.30;5.20;;;21.10;27.20;;;;;;5000711;28;20457;-86
2022/05/11 06:50:59;;;;;;;8.53;5.50;;;21.20;25.50;;;;;;4992623;28;20507;-86
2022/05/11 06:53:26;;;;;;;8.27;4.80;;;21.10;25.80;;;;;;5004207;28;20478;-86
2022/05/11 07:01:22;;;;;;;8.47;4.27;;;21.40;26.60;;;;;;5012365;28;20233;-81
2022/05/11 07:03:50;;;;;;;7.77;3.80;;;21.50;25.00;;;;;;5012519;28;20532;-81
2022/05/11 07:06:17;;;;;;;14.20;5.60;;;21.80;24.70;;;;;;5015765;28;20847;-81
2022/05/11 07:08:45;;;;;;;9.70;4.20;;;22.00;23.00;;;;;;5014897;28;20452;-81
2022/05/11 07:13:57;;;;;;;7.70;3.50;;;22.20;21.30;;;;;;5015371;28;20455;-81
2022/05/11 07:16:25;;;;;;;9.53;4.40;;;22.10;20.80;;;;;;5014359;28;20459;-81
2022/05/11 07:18:53;;;;;;;6.80;3.07;;;22.40;22.60;;;;;;5014877;28;20857;-81
2022/05/11 07:21:20;;;;;;;7.03;3.17;;;22.20;20.10;;;;;;5015359;28;20480;-81
2022/05/11 07:23:47;;;;;;;6.87;2.27;;;22.00;19.90;;;;;;5015509;28;20479;-81
2022/05/11 07:26:14;;;;;;;4.60;2.10;;;21.80;16.90;;;;;;5015961;28;20834;-81
2022/05/11 07:28:40;;;;;;;5.83;2.33;;;21.50;15.60;;;;;;5014817;28;20458;-81
2022/05/11 07:31:07;;;;;;;6.73;2.60;;;21.30;16.80;;;;;;5015504;28;20518;-81
2022/05/11 07:33:34;;;;;;;6.80;2.50;;;21.30;17.80;;;;;;5015115;28;20474;-81
2022/05/11 07:36:02;;;;;;;7.57;2.50;;;21.10;20.40;;;;;;5015339;28;20465;-81
2022/05/11 07:38:29;;;;;;;10.50;3.00;;;21.10;19.50;;;;;;5015393;28;20464;-80
2022/05/11 07:40:55;;;;;;;10.20;2.37;;;21.20;19.90;;;;;;5015117;28;20485;-80
2022/05/11 07:43:23;;;;;;;6.30;2.33;;;21.00;18.60;;;;;;5014989;28;20483;-81
2022/05/11 07:45:50;;;;;;;4.67;1.83;;;21.00;20.40;;;;;;5015166;28;20463;-80
2022/05/11 07:48:19;;;;;;;6.73;2.13;;;20.90;22.50;;;;;;5014367;28;20464;-80
2022/05/11 07:50:46;;;;;;;5.17;2.23;;;21.00;20.40;;;;;;5015024;28;20514;-80
2022/05/11 07:53:14;;;;;;;7.60;2.23;;;21.00;18.80;;;;;;5016034;28;20502;-80
2022/05/11 07:55:41;;;;;;;5.63;2.57;;;21.20;19.50;;;;;;5014852;28;20479;-80
2022/05/11 08:00:55;;;;;;;6.60;2.70;;;21.30;18.00;;;;;;5014643;28;21064;-80
2022/05/11 08:03:22;;;;;;;6.00;2.73;;;21.60;20.20;;;;;;5015223;28;20487;-80
2022/05/11 08:05:49;;;;;;;7.90;2.40;;;21.80;16.10;;;;;;5014951;28;20468;-81
2022/05/11 08:08:17;;;;;;;4.83;1.97;;;22.10;16.20;;;;;;5014022;28;20466;-80
2022/05/11 08:10:46;;;;;;;7.10;2.27;;;22.20;13.90;;;;;;5014791;28;20852;-81
2022/05/11 08:13:13;;;;;;;5.80;2.33;;;22.40;14.90;;;;;;5014415;28;20478;-82
2022/05/11 08:15:43;;;;;;;8.97;2.80;;;22.80;14.20;;;;;;5013023;28;20956;-81
2022/05/11 08:18:10;;;;;;;4.50;1.90;;;22.80;12.40;;;;;;5009299;28;20461;-80
2022/05/11 08:20:40;;;;;;;8.37;2.90;;;23.10;13.30;;;;;;5017449;28;20986;-81
2022/05/11 08:23:09;;;;;;;5.13;2.30;;;23.00;11.60;;;;;;5014913;28;20493;-81
2022/05/11 08:25:39;;;;;;;16.93;3.23;;;23.20;12.00;;;;;;4997026;28;20830;-81
2022/05/11 08:28:11;;;;;;;5.47;2.63;;;23.40;11.90;;;;;;5003064;28;20460;-80
2022/05/11 08:33:23;;;;;;;7.07;2.00;;;23.70;12.30;;;;;;5013475;28;20464;-81
2022/05/11 08:35:52;;;;;;;6.13;2.10;;;24.20;10.80;;;;;;5013403;28;20942;-82
2022/05/11 08:38:21;;;;;;;7.73;2.73;;;24.50;11.00;;;;;;5013111;28;20540;-81
2022/05/11 08:40:55;;;;;;;6.03;2.70;;;24.80;9.00;;;;;;5013878;28;20513;-81
2022/05/11 08:43:23;;;;;;;7.03;2.67;;;24.90;9.70;;;;;;5013501;28;20538;-82
2022/05/11 08:46:01;;;;;;;5.97;2.67;;;24.60;7.80;;;;;;5012044;28;20460;-81
2022/05/11 08:48:39;;;;;;;9.20;3.10;;;24.70;9.50;;;;;;5013141;28;20457;-82
2022/05/11 08:51:09;;;;;;;8.13;2.43;;;24.90;8.10;;;;;;5014605;28;20449;-81
2022/05/11 08:53:38;;;;;;;7.33;3.10;;;25.00;5.30;;;;;;5013768;28;20480;-81
2022/05/11 08:56:13;;;;;;;8.90;3.37;;;24.90;6.80;;;;;;5013772;28;20457;-81
2022/05/11 08:58:45;;;;;;;10.70;3.23;;;25.00;6.90;;;;;;5012712;28;20503;-82
2022/05/11 09:01:20;;;;;;;8.10;2.80;;;25.10;4.90;;;;;;5013562;28;20473;-81
2022/05/11 09:03:52;;;;;;;5.60;2.73;;;25.30;4.00;;;;;;5013600;28;20538;-81
2022/05/11 09:06:23;;;;;;;7.40;3.07;;;25.10;4.40;;;;;;5013394;28;20504;-81
2022/05/11 09:08:50;;;;;;;7.43;3.17;;;25.10;5.60;;;;;;5012901;28;20456;-81
2022/05/11 09:11:28;;;;;;;10.47;3.10;;;25.00;7.60;;;;;;5013030;28;20480;-82
2022/05/11 09:13:57;;;;;;;7.23;3.20;;;25.30;7.40;;;;;;5013418;28;20894;-82
2022/05/11 09:16:27;;;;;;;8.57;3.80;;;25.00;3.30;;;;;;5013297;28;20456;-81
2022/05/11 09:18:56;;;;;;;7.30;3.00;;;25.10;5.50;;;;;;5012436;28;20456;-81
2022/05/11 09:21:30;;;;;;;10.50;3.10;;;25.70;3.80;;;;;;5013190;28;20512;-82
2022/05/11 09:24:23;;;;;;;9.30;3.50;;;26.10;1.00;;;;;;5013068;28;20475;-81
2022/05/11 09:27:02;;;;;;;7.43;3.30;;;25.90;1.00;;;;;;5012601;28;20449;-82
2022/05/11 09:29:35;;;;;;;7.90;3.63;;;26.10;3.50;;;;;;5012408;28;20435;-82
2022/05/11 09:32:31;;;;;;;7.90;3.30;;;26.20;1.00;;;;;;5014127;28;20451;-82
2022/05/11 09:35:16;;;;;;;9.40;3.60;;;26.30;1.00;;;;;;5013556;28;20877;-82
2022/05/11 09:37:44;;;;;;;7.03;3.37;;;26.40;1.00;;;;;;5012895;28;20449;-82
2022/05/11 09:40:17;;;;;;;9.27;4.90;;;26.60;1.10;;;;;;5012089;28;20484;-82
2022/05/11 09:42:55;;;;;;;7.23;4.13;;;26.60;1.00;;;;;;5013214;28;20551;-82
2022/05/11 09:45:43;;;;;;;6.70;3.37;;;26.40;1.00;;;;;;5011475;28;20511;-81
2022/05/11 09:48:16;;;;;;;7.23;3.60;;;26.40;1.00;;;;;;5012217;28;20457;-81
2022/05/11 09:50:43;;;;;;;7.67;3.80;;;26.90;1.00;;;;;;5012921;28;20457;-82
2022/05/11 09:53:21;;;;;;;7.60;3.90;;;26.90;1.00;;;;;;5012685;28;20513;-81
2022/05/11 09:55:49;;;;;;;9.43;4.37;;;26.70;1.00;;;;;;5013005;28;20892;-81
2022/05/11 09:58:28;;;;;;;8.50;4.90;;;26.30;1.00;;;;;;5011907;28;20462;-81
2022/05/11 10:01:09;;;;;;;7.20;4.23;;;26.10;1.00;;;;;;5012535;28;20483;-81
2022/05/11 10:03:39;;;;;;;8.30;4.20;;;26.50;1.00;;;;;;5012843;28;20550;-82
2022/05/11 10:06:09;;;;;;;6.07;2.93;;;26.90;1.00;;;;;;5012716;28;20457;-82
2022/05/11 10:08:38;;;;;;;11.10;4.87;;;26.90;1.00;;;;;;5012181;28;20453;-82
2022/05/11 10:11:09;;;;;;;6.73;3.40;;;26.80;1.00;;;;;;5012867;28;20529;-82
2022/05/11 10:13:43;;;;;;;7.70;3.87;;;26.80;1.00;;;;;;5012224;28;20864;-82
2022/05/11 10:22:02;;;;;;;6.93;3.10;;;27.20;1.00;;;;;;5010484;28;20480;-82
2022/05/11 10:24:40;;;;;;;5.87;3.40;;;27.10;1.00;;;;;;5010995;28;20448;-80
2022/05/11 10:27:13;;;;;;;7.97;2.80;;;27.10;1.00;;;;;;5001716;28;21009;-79
2022/05/11 10:29:59;;;;;;;7.43;2.83;;;27.10;1.00;;;;;;4992994;28;20454;-79
2022/05/11 10:32:37;;;;;;;6.17;3.20;;;27.10;1.00;;;;;;4996173;28;20470;-80
2022/05/11 10:35:11;;;;;;;6.73;2.90;;;27.40;1.00;;;;;;5014117;28;20453;-80
2022/05/11 10:37:47;;;;;;;14.43;3.63;;;27.80;1.00;;;;;;5001333;28;20434;-82
2022/05/11 10:40:22;;;;;;;6.17;2.80;;;27.00;1.00;;;;;;5002732;28;20456;-79
2022/05/11 10:43:00;;;;;;;7.30;3.40;;;27.30;1.00;;;;;;4996937;28;20456;-80
2022/05/11 10:45:35;;;;;;;7.13;3.33;;;27.30;1.00;;;;;;5016198;28;20990;-80
2022/05/11 10:48:16;;;;;;;8.10;3.27;;;27.60;1.00;;;;;;5008571;28;20445;-80
2022/05/11 10:50:53;;;;;;;7.30;3.22;;;27.50;1.00;;;;;;4998687;28;20456;-78
2022/05/11 10:53:36;;;;;;;7.83;2.70;;;27.60;1.00;;;;;;4997974;28;20214;-79
2022/05/11 10:56:28;;;;;;;6.03;3.30;;;27.40;1.00;;;;;;5001473;28;20539;-80
2022/05/11 10:59:48;;;;;;;6.20;3.10;;;27.60;1.00;;;;;;4999241;28;20533;-79
2022/05/11 11:03:10;;;;;;;5.40;2.47;;;27.70;1.00;;;;;;4942247;28;20475;-80
2022/05/11 11:07:11;;;;;;;10.70;3.63;;;27.50;1.00;;;;;;4953815;29;20595;-79
2022/05/11 11:08:47;;;;;;;7.80;3.10;;;28.30;1.00;;;;;;4980428;28;20895;-78
2022/05/11 11:11:21;;;;;;;7.57;3.37;;;28.70;1.00;;;;;;5002669;28;20969;-81
2022/05/11 11:13:53;;;;;;;8.03;4.30;;;28.30;1.00;;;;;;5000896;28;20460;-80
2022/05/11 11:16:23;;;;;;;7.97;2.60;;;28.80;1.00;;;;;;5015566;28;20785;-79
2022/05/11 11:18:52;;;;;;;6.30;2.70;;;29.00;1.00;;;;;;5010160;28;20449;-80
2022/05/11 11:21:22;;;;;;;6.30;2.77;;;28.70;1.00;;;;;;5006495;28;20475;-80
2022/05/11 11:24:17;;;;;;;9.80;3.77;;;28.60;1.00;;;;;;4998960;28;20474;-80
2022/05/11 11:26:52;;;;;;;6.77;1.90;;;29.10;1.00;;;;;;4996603;28;20446;-80
2022/05/11 11:29:25;;;;;;;7.40;3.33;;;29.10;1.00;;;;;;4995465;28;20454;-80
2022/05/11 11:32:11;;;;;;;6.10;3.00;;;29.00;1.00;;;;;;4997085;28;20429;-79
2022/05/11 11:34:39;;;;;;;9.23;3.40;;;29.00;1.00;;;;;;4977474;28;20458;-79
2022/05/11 11:37:41;;;;;;;5.33;3.03;;;29.20;1.00;;;;;;4982856;28;20428;-80
2022/05/11 11:40:27;;;;;;;7.67;2.90;;;29.50;1.00;;;;;;4993879;28;20445;-80
2022/05/11 11:42:55;;;;;;;6.70;3.00;;;29.50;1.00;;;;;;5011581;23;20485;-83
2022/05/11 11:46:03;;;;;;;12.03;4.50;;;29.60;1.00;;;;;;5001340;28;20453;-83
2022/05/11 11:48:31;;;;;;;11.00;3.40;;;30.30;1.00;;;;;;5000002;28;20978;-83
2022/05/11 11:51:00;;;;;;;6.20;3.40;;;29.90;1.00;;;;;;5001186;28;20454;-83
2022/05/11 11:53:33;;;;;;;8.27;3.23;;;30.00;1.00;;;;;;4992726;28;20466;-82
2022/05/11 11:56:36;;;;;;;7.57;3.17;;;30.20;1.00;;;;;;5001394;28;20425;-81
2022/05/11 11:59:05;;;;;;;7.73;3.00;;;30.50;1.00;;;;;;4997827;28;20858;-82
2022/05/11 12:01:36;;;;;;;10.80;3.83;;;29.90;1.00;;;;;;4999359;28;20452;-82
2022/05/11 12:04:08;;;;;;;5.83;2.90;;;29.60;1.00;;;;;;4998920;28;21049;-82
2022/05/11 12:15:02;;;;;;;10.10;3.20;;;30.60;1.00;;;;;;5000673;28;20812;-83
2022/05/11 12:17:33;;;;;;;6.17;2.90;;;30.30;1.00;;;;;;4983065;28;20831;-84
2022/05/11 12:20:05;;;;;;;8.47;3.13;;;30.70;1.00;;;;;;4995604;28;20450;-84
2022/05/11 12:22:32;;;;;;;6.37;3.53;;;30.40;1.00;;;;;;5002433;28;20481;-84
2022/05/11 12:25:03;;;;;;;11.77;3.23;;;30.40;1.00;;;;;;5002515;28;20461;-84
2022/05/11 12:27:33;;;;;;;7.90;3.00;;;30.70;1.00;;;;;;5001869;28;20485;-84
2022/05/11 12:30:04;;;;;;;5.33;2.73;;;30.70;1.00;;;;;;5000777;28;20454;-83
2022/05/11 12:32:35;;;;;;;7.00;3.03;;;30.70;1.00;;;;;;5003927;28;21100;-79
2022/05/11 12:35:11;;;;;;;7.73;3.23;;;31.10;1.00;;;;;;4999703;28;20471;-80
2022/05/11 12:37:39;;;;;;;6.97;3.17;;;30.80;1.00;;;;;;4998106;28;20454;-81
2022/05/11 12:40:08;;;;;;;8.83;3.60;;;30.60;1.00;;;;;;4999211;28;20480;-82
2022/05/11 12:42:42;;;;;;;5.67;2.90;;;30.90;1.00;;;;;;4998885;28;20489;-82
2022/05/11 12:45:12;;;;;;;8.57;3.20;;;31.70;1.00;;;;;;4998914;28;20454;-82
2022/05/11 12:47:55;;;;;;;10.60;3.30;;;31.10;1.00;;;;;;5000479;28;20943;-82
2022/05/11 12:50:26;;;;;;;8.63;2.93;;;31.00;1.00;;;;;;4997454;28;20966;-82
2022/05/11 12:53:20;;;;;;;8.93;3.23;;;31.00;1.00;;;;;;4999733;28;20476;-82
2022/05/11 12:55:50;;;;;;;8.20;3.33;;;31.30;1.00;;;;;;4999141;28;20545;-83
2022/05/11 12:58:20;;;;;;;6.13;2.93;;;31.80;1.00;;;;;;4997880;28;20420;-81
2022/05/11 13:00:54;;;;;;;6.60;2.80;;;31.80;1.00;;;;;;4998112;28;20961;-82
2022/05/11 13:03:22;;;;;;;6.90;3.20;;;31.40;1.00;;;;;;4995722;28;20834;-81
2022/05/11 13:05:50;;;;;;;12.90;2.73;;;31.80;1.00;;;;;;4998180;28;20428;-82
2022/05/11 13:08:17;;;;;;;6.53;3.23;;;32.40;1.00;;;;;;4998364;28;20450;-81
2022/05/11 13:10:44;;;;;;;6.70;2.97;;;31.70;1.00;;;;;;4999644;28;20446;-82
2022/05/11 13:13:15;;;;;;;7.23;3.63;;;31.90;1.00;;;;;;4998423;28;20466;-81
2022/05/11 13:15:46;;;;;;;11.13;3.60;;;31.70;1.00;;;;;;4980329;28;20455;-82
2022/05/11 13:18:23;;;;;;;7.63;3.00;;;31.10;1.00;;;;;;4984389;28;20477;-83
2022/05/11 13:20:52;;;;;;;7.63;3.03;;;31.60;1.00;;;;;;4997532;28;20438;-82
2022/05/11 13:23:33;;;;;;;8.33;2.90;;;31.10;1.00;;;;;;5084678;27;21065;-83
2022/05/11 13:26:01;;;;;;;6.60;3.30;;;31.60;1.00;;;;;;5074497;28;20451;-82
2022/05/11 13:28:31;;;;;;;8.37;3.70;;;31.60;1.00;;;;;;5074500;28;21042;-84
2022/05/11 13:31:01;;;;;;;9.17;3.00;;;31.80;1.00;;;;;;5074356;28;20459;-83
2022/05/11 13:33:43;;;;;;;8.13;3.80;;;31.50;1.00;;;;;;5074158;28;20477;-82
2022/05/11 13:36:17;;;;;;;5.57;2.90;;;31.60;1.00;;;;;;5072851;28;20450;-82
2022/05/11 13:38:58;;;;;;;8.93;3.23;;;31.70;1.00;;;;;;5073207;28;20425;-83
2022/05/11 13:41:28;;;;;;;7.50;3.03;;;31.70;1.00;;;;;;5072803;28;20482;-81
2022/05/11 13:43:57;;;;;;;7.17;3.47;;;30.90;1.00;;;;;;5071573;28;20494;-81
2022/05/11 13:46:35;;;;;;;7.60;3.40;;;30.60;1.00;;;;;;5075064;28;20451;-83
2022/05/11 13:49:23;;;;;;;5.53;2.83;;;31.60;1.00;;;;;;5072845;28;20512;-82
2022/05/11 13:51:50;;;;;;;8.60;3.73;;;31.40;1.00;;;;;;5072317;28;20546;-83
2022/05/11 13:54:26;;;;;;;10.43;3.00;;;32.10;1.00;;;;;;5073023;28;21005;-82
2022/05/11 13:56:59;;;;;;;12.07;3.20;;;33.00;1.00;;;;;;5072836;28;20457;-82
2022/05/11 13:59:26;;;;;;;7.13;2.80;;;32.90;1.00;;;;;;5069931;28;20455;-83